Time;durP1;ratioP1;P1;durP2;ratioP2;P2;SDS_P1;SDS_P2;PMS_P1;PMS_P2;Temp;Humidity;BMP_temperature;BMP_pressure;BME280_temperature;BME280_humidity;BME280_pressure;Samples;Min_cycle;Max_cycle;Signal;HPM_P1;HPM_P2
2022/02/06 00:00:20;;;;;;;7.38;2.20;;;;;;;4.79;78.57;98690.13;4108173;28;20242;-92
2022/02/06 00:02:30;;;;;;;3.72;1.83;;;;;;;4.79;78.04;98684.97;4111613;28;20232;-91
2022/02/06 00:04:35;;;;;;;8.57;2.50;;;;;;;4.81;79.56;98678.84;4113376;28;20206;-91
2022/02/06 00:06:41;;;;;;;8.80;2.20;;;;;;;4.79;78.69;98672.03;4140736;28;20607;-92
2022/02/06 00:08:44;;;;;;;3.95;2.50;;;;;;;4.84;78.67;98667.53;4125701;28;20214;-90
2022/02/06 00:10:47;;;;;;;4.53;2.20;;;;;;;4.85;78.59;98667.50;4109787;28;20222;-93
2022/02/06 00:12:50;;;;;;;6.05;2.05;;;;;;;4.88;78.13;98661.38;4105103;28;20265;-92
2022/02/06 00:14:54;;;;;;;5.72;1.90;;;;;;;4.84;78.69;98659.78;4089243;28;20222;-91
2022/02/06 00:16:57;;;;;;;4.65;2.03;;;;;;;4.83;79.03;98658.13;4140323;28;20233;-92
2022/02/06 00:19:02;;;;;;;7.85;1.98;;;;;;;4.83;77.77;98658.97;4095419;28;20718;-92
2022/02/06 00:21:11;;;;;;;3.22;1.92;;;;;;;4.83;78.41;98645.22;4125516;28;20228;-93
2022/02/06 00:23:17;;;;;;;6.18;2.13;;;;;;;4.85;78.72;98651.16;4097216;28;20241;-92
2022/02/06 00:25:28;;;;;;;4.65;1.90;;;;;;;4.83;78.18;98646.03;4125519;28;20217;-91
2022/02/06 00:27:42;;;;;;;3.92;2.15;;;;;;;4.80;77.88;98640.16;4110832;28;20200;-93
2022/02/06 00:29:53;;;;;;;4.75;2.10;;;;;;;4.72;78.25;98635.28;4110945;28;20218;-92
2022/02/06 00:32:00;;;;;;;4.35;1.92;;;;;;;4.72;78.74;98629.25;4129452;28;20212;-93
2022/02/06 00:34:33;;;;;;;7.55;2.28;;;;;;;4.72;77.69;98626.66;4107168;28;20878;-91
2022/02/06 00:39:11;;;;;;;6.72;1.85;;;;;;;4.71;78.55;98633.56;4106753;28;20260;-91
2022/02/06 00:41:15;;;;;;;3.85;1.85;;;;;;;4.70;78.42;98621.56;4124340;28;20295;-92
2022/02/06 00:43:21;;;;;;;4.95;2.10;;;;;;;4.77;77.92;98627.34;4105064;28;20218;-91
2022/02/06 00:45:24;;;;;;;4.13;2.15;;;;;;;4.80;78.22;98612.56;4140896;28;20208;-90
2022/02/06 00:47:28;;;;;;;3.70;1.55;;;;;;;4.85;77.94;98612.41;4125506;28;20207;-92
2022/02/06 00:49:35;;;;;;;4.30;1.88;;;;;;;4.91;77.54;98614.75;4110382;28;20247;-91
2022/02/06 00:51:45;;;;;;;6.90;2.05;;;;;;;4.96;77.16;98618.88;4102233;28;20285;-91
2022/02/06 00:53:48;;;;;;;3.65;1.55;;;;;;;5.05;78.01;98617.66;4108096;28;20215;-93
2022/02/06 00:55:54;;;;;;;6.28;2.03;;;;;;;5.06;77.18;98614.19;4092828;28;20578;-92
2022/02/06 00:57:57;;;;;;;4.90;1.60;;;;;;;5.08;77.42;98609.78;4127468;28;20300;-92
2022/02/06 01:00:01;;;;;;;3.78;1.92;;;;;;;5.12;76.72;98601.03;4107435;28;20211;-91
2022/02/06 01:02:04;;;;;;;3.50;1.48;;;;;;;5.12;77.16;98595.84;4140683;28;20267;-91
2022/02/06 01:04:08;;;;;;;3.80;1.45;;;;;;;5.12;77.60;98591.50;4096228;28;20202;-92
2022/02/06 01:06:12;;;;;;;3.97;1.88;;;;;;;5.11;76.96;98587.25;4096210;28;20295;-93
2022/02/06 01:08:18;;;;;;;6.03;2.05;;;;;;;5.15;76.97;98599.16;4140784;28;20513;-93
2022/02/06 01:10:23;;;;;;;4.90;1.50;;;;;;;5.15;77.82;98594.81;4106445;28;20213;-93
2022/02/06 01:12:29;;;;;;;4.95;1.65;;;;;;;5.19;77.50;98585.22;4108855;28;20824;-92
2022/02/06 01:14:47;;;;;;;5.18;2.03;;;;;;;5.21;77.44;98592.00;4124216;28;20210;-90
2022/02/06 01:16:58;;;;;;;6.05;1.70;;;;;;;5.25;77.52;98584.97;4139540;28;20293;-92
2022/02/06 01:19:05;;;;;;;3.20;1.38;;;;;;;5.26;76.64;98592.69;4124087;28;20210;-88
2022/02/06 01:21:19;;;;;;;3.83;1.40;;;;;;;5.26;76.46;98584.91;4109681;28;20317;-92
2022/02/06 01:23:28;;;;;;;2.80;1.27;;;;;;;5.29;76.95;98586.53;4127516;28;20213;-91
2022/02/06 01:25:36;;;;;;;3.20;1.60;;;;;;;5.33;77.51;98588.94;4103715;28;20189;-92
2022/02/06 01:27:46;;;;;;;2.90;1.65;;;;;;;5.34;77.05;98589.78;4137528;28;20292;-92
2022/02/06 01:29:56;;;;;;;2.95;1.50;;;;;;;5.29;76.27;98587.38;4126039;28;20378;-91
2022/02/06 01:32:03;;;;;;;4.63;1.63;;;;;;;5.19;77.74;98596.38;4111034;28;20205;-93
2022/02/06 01:34:09;;;;;;;4.68;1.65;;;;;;;5.24;76.58;98594.47;4104897;28;20214;-93
2022/02/06 01:36:23;;;;;;;3.50;1.67;;;;;;;5.25;77.66;98587.56;4096025;28;20229;-92
2022/02/06 01:38:33;;;;;;;5.35;1.70;;;;;;;5.23;77.13;98585.03;4141785;28;20534;-93
2022/02/06 01:40:42;;;;;;;7.28;1.70;;;;;;;5.22;76.81;98592.84;4141161;28;20553;-92
2022/02/06 01:42:57;;;;;;;6.80;1.40;;;;;;;5.24;77.27;98580.69;4121679;28;20315;-91
2022/02/06 01:45:23;;;;;;;5.50;1.60;;;;;;;5.25;76.77;98587.56;4096099;28;20214;-91
2022/02/06 02:01:48;;;;;;;2.88;1.33;;;;;;;5.47;76.83;98565.94;4106287;28;20249;-88
2022/02/06 02:03:59;;;;;;;2.75;1.40;;;;;;;5.49;77.46;98563.28;4124172;28;20214;-92
2022/02/06 02:11:17;;;;;;;5.82;1.48;;;;;;;5.41;76.99;98549.84;4099873;28;20221;-91
2022/02/06 02:13:38;;;;;;;3.40;1.60;;;;;;;5.42;77.45;98552.34;4106614;28;20238;-91
2022/02/06 02:18:19;;;;;;;3.45;1.90;;;;;;;5.34;78.18;98538.91;4110306;28;20253;-91
2022/02/06 02:20:45;;;;;;;5.15;1.65;;;;;;;5.33;77.84;98531.22;4106856;28;20669;-92
2022/02/06 02:23:25;;;;;;;3.22;1.30;;;;;;;5.31;77.94;98528.69;4095399;28;20249;-90
2022/02/06 02:28:24;;;;;;;3.05;1.50;;;;;;;5.35;77.76;98512.16;4073861;28;20306;-90
2022/02/06 02:47:13;;;;;;;4.45;1.40;;;;;;;5.34;77.83;98465.69;4102681;28;20641;-92
2022/02/06 02:49:20;;;;;;;7.55;1.58;;;;;;;5.37;77.21;98465.56;4140185;28;20626;-92
2022/02/06 02:55:20;;;;;;;7.88;2.33;;;;;;;5.35;78.01;98450.09;4109487;28;20266;-91
2022/02/06 02:57:29;;;;;;;3.40;1.15;;;;;;;5.34;78.11;98460.50;4109024;28;20236;-93
2022/02/06 02:59:44;;;;;;;4.97;1.35;;;;;;;5.35;78.17;98452.69;4108136;28;20209;-92
2022/02/06 03:01:53;;;;;;;4.35;1.48;;;;;;;5.34;77.75;98460.50;4113544;28;20206;-91
2022/02/06 03:03:58;;;;;;;3.38;1.45;;;;;;;5.34;78.49;98456.16;4127939;28;20239;-91
2022/02/06 03:06:03;;;;;;;7.90;2.03;;;;;;;5.29;78.40;98442.59;4124376;28;20233;-92
2022/02/06 03:08:07;;;;;;;3.15;1.20;;;;;;;5.30;78.18;98448.59;4107745;28;20210;-90
2022/02/06 03:10:12;;;;;;;5.85;1.40;;;;;;;5.32;78.26;98441.63;4094020;28;20210;-92
2022/02/06 03:12:19;;;;;;;5.35;1.50;;;;;;;5.36;78.44;98443.19;4127496;28;20205;-93
2022/02/06 03:14:28;;;;;;;8.85;1.95;;;;;;;5.34;78.44;98432.91;4144257;28;20658;-92
2022/02/06 03:16:35;;;;;;;4.90;1.88;;;;;;;5.36;77.46;98433.66;4144147;28;20196;-92
2022/02/06 03:18:47;;;;;;;3.28;1.30;;;;;;;5.34;78.35;98425.16;4129664;28;20208;-91
2022/02/06 03:20:53;;;;;;;3.60;1.50;;;;;;;5.34;77.71;98426.91;4143061;28;20191;-91
2022/02/06 03:23:00;;;;;;;4.78;1.90;;;;;;;5.38;77.57;98423.25;4111905;28;20236;-89
2022/02/06 03:25:07;;;;;;;4.45;1.40;;;;;;;5.36;77.70;98414.75;4108167;28;20629;-91
2022/02/06 03:27:11;;;;;;;7.28;1.38;;;;;;;5.34;78.10;98399.28;4089744;28;20706;-93
2022/02/06 03:29:15;;;;;;;5.53;1.60;;;;;;;5.29;77.57;98408.13;4143483;28;20201;-90
2022/02/06 03:31:19;;;;;;;4.40;1.30;;;;;;;5.28;77.81;98412.47;4113396;28;20601;-91
2022/02/06 03:33:22;;;;;;;5.88;1.50;;;;;;;5.32;78.84;98413.19;4096142;28;20206;-91
2022/02/06 03:35:25;;;;;;;5.60;1.63;;;;;;;5.27;78.18;98412.53;4114668;28;20257;-91
2022/02/06 03:37:29;;;;;;;5.20;1.75;;;;;;;5.27;78.28;98402.19;4111482;28;20206;-91
2022/02/06 03:39:35;;;;;;;4.82;1.40;;;;;;;5.31;78.66;98404.59;4093812;28;20207;-92
2022/02/06 03:41:52;;;;;;;5.60;1.27;;;;;;;5.28;78.92;98411.66;4094473;28;20562;-91
2022/02/06 03:44:03;;;;;;;3.92;1.30;;;;;;;5.27;78.83;98407.38;4099231;28;20235;-91
2022/02/06 03:46:10;;;;;;;3.08;1.60;;;;;;;5.26;79.12;98401.38;4130304;28;20214;-92
2022/02/06 03:48:18;;;;;;;3.30;1.48;;;;;;;5.21;78.67;98395.53;4142693;28;20223;-92
2022/02/06 03:50:31;;;;;;;4.45;1.55;;;;;;;5.23;78.13;98391.16;4109421;28;20215;-92
2022/02/06 03:52:42;;;;;;;5.45;1.67;;;;;;;5.20;77.72;98395.59;4128702;28;20721;-91
2022/02/06 03:54:45;;;;;;;3.40;1.52;;;;;;;5.21;79.13;98398.13;4109134;28;20288;-91
2022/02/06 03:56:51;;;;;;;2.45;1.40;;;;;;;5.20;78.85;98388.72;4125198;28;20235;-92
2022/02/06 03:58:57;;;;;;;4.05;1.23;;;;;;;5.18;78.94;98385.31;4092850;28;20250;-88
2022/02/06 04:01:00;;;;;;;4.15;1.50;;;;;;;5.16;77.87;98381.16;4110451;28;20228;-92
2022/02/06 04:03:05;;;;;;;3.67;1.30;;;;;;;5.21;78.05;98377.44;4108592;28;20225;-90
2022/02/06 04:05:09;;;;;;;4.10;1.30;;;;;;;5.19;78.66;98362.94;4088763;28;20268;-92
2022/02/06 04:07:13;;;;;;;3.35;1.38;;;;;;;5.23;78.30;98367.91;4094592;28;20198;-92
2022/02/06 04:09:21;;;;;;;1.85;1.10;;;;;;;5.20;78.72;98362.84;4110432;28;20212;-91
2022/02/06 04:11:34;;;;;;;2.63;1.10;;;;;;;5.18;79.32;98367.22;4109531;28;20226;-92
2022/02/06 04:13:51;;;;;;;4.63;1.65;;;;;;;5.24;79.29;98369.56;4094790;28;20784;-90
2022/02/06 04:15:59;;;;;;;5.00;1.20;;;;;;;5.24;79.10;98366.97;4124989;28;20209;-92
2022/02/06 04:18:10;;;;;;;4.05;1.40;;;;;;;5.26;78.63;98362.59;4121682;28;20214;-90
2022/02/06 04:20:16;;;;;;;4.68;1.20;;;;;;;5.22;78.20;98361.03;4109917;28;20241;-92
2022/02/06 04:22:20;;;;;;;3.25;1.00;;;;;;;5.25;78.65;98352.31;4127221;28;20198;-90
2022/02/06 04:24:25;;;;;;;4.07;1.30;;;;;;;5.30;78.47;98347.78;4093167;28;20265;-91
2022/02/06 04:26:28;;;;;;;5.40;1.30;;;;;;;5.28;78.17;98353.03;4126392;28;20213;-91
2022/02/06 04:28:31;;;;;;;4.30;1.60;;;;;;;5.31;77.83;98349.47;4094507;28;20204;-90
2022/02/06 04:30:35;;;;;;;7.13;1.48;;;;;;;5.32;78.22;98348.53;4092992;29;20715;-90
2022/02/06 04:32:40;;;;;;;5.35;1.70;;;;;;;5.33;78.31;98340.72;4094499;28;20565;-91
2022/02/06 04:34:43;;;;;;;4.05;1.27;;;;;;;5.38;78.46;98340.53;4113036;28;20255;-90
2022/02/06 04:36:53;;;;;;;3.78;2.80;;;;;;;5.36;78.31;98340.59;4110822;28;20253;-91
2022/02/06 04:39:07;;;;;;;5.82;1.67;;;;;;;5.35;77.85;98341.53;4095345;28;20265;-91
2022/02/06 04:41:25;;;;;;;4.85;1.70;;;;;;;5.39;78.35;98345.63;4108769;28;20204;-91
2022/02/06 04:46:32;;;;;;;4.93;1.83;;;;;;;5.40;78.26;98334.38;4099687;28;20205;-90
2022/02/06 04:51:52;;;;;;;3.80;1.33;;;;;;;5.42;78.25;98337.72;4099278;28;20211;-91
2022/02/06 05:15:22;;;;;;;4.07;1.50;;;;;;;5.65;77.28;98293.56;4058553;29;20219;-90
2022/02/06 05:22:49;;;;;;;4.15;1.60;;;;;;;5.69;76.97;98288.19;4215210;27;21152;-91
2022/02/06 05:25:18;;;;;;;4.00;1.40;;;;;;;5.73;77.73;98300.09;4200081;28;20282;-91
2022/02/06 05:27:53;;;;;;;3.15;1.38;;;;;;;5.75;77.22;98293.13;4186689;28;20200;-91
2022/02/06 05:30:02;;;;;;;6.25;1.55;;;;;;;5.69;77.54;98297.72;4216065;28;20643;-91
2022/02/06 05:32:17;;;;;;;7.20;1.42;;;;;;;5.64;77.98;98304.84;4189390;28;20282;-92
2022/02/06 05:34:22;;;;;;;3.58;1.40;;;;;;;5.60;78.63;98298.13;4187321;28;20202;-91
2022/02/06 05:36:25;;;;;;;5.93;1.75;;;;;;;5.62;77.81;98311.81;4211957;28;20274;-91
2022/02/06 05:38:30;;;;;;;6.32;1.38;;;;;;;5.61;78.22;98311.00;4203507;28;20213;-90
2022/02/06 05:40:33;;;;;;;3.10;1.33;;;;;;;5.60;78.44;98301.53;4192152;28;20211;-91
2022/02/06 05:42:36;;;;;;;5.35;1.50;;;;;;;5.59;79.14;98308.53;4187338;28;20214;-91
2022/02/06 05:44:41;;;;;;;2.85;1.38;;;;;;;5.60;78.23;98308.47;4186135;28;20245;-90
2022/02/06 05:46:44;;;;;;;4.38;1.20;;;;;;;5.60;78.55;98308.47;4187538;28;20196;-90
2022/02/06 05:48:48;;;;;;;4.35;1.10;;;;;;;5.58;78.46;98307.72;4202421;28;20572;-92
2022/02/06 05:50:51;;;;;;;2.88;1.50;;;;;;;5.53;78.57;98322.56;4184089;28;20208;-90
2022/02/06 05:52:54;;;;;;;5.68;1.70;;;;;;;5.53;79.06;98317.41;4199818;28;20208;-91
2022/02/06 05:54:59;;;;;;;3.30;1.40;;;;;;;5.57;78.71;98308.59;4201885;28;20265;-91
2022/02/06 05:57:02;;;;;;;5.68;1.90;;;;;;;5.57;78.45;98303.44;4201604;28;20607;-91
2022/02/06 05:59:05;;;;;;;2.88;1.08;;;;;;;5.52;78.88;98309.72;4200051;28;20207;-90
2022/02/06 06:01:09;;;;;;;3.90;1.50;;;;;;;5.55;79.34;98315.59;4187971;28;21266;-89
2022/02/06 06:03:12;;;;;;;3.10;1.27;;;;;;;5.59;78.55;98308.53;4203029;28;20244;-90
2022/02/06 06:05:15;;;;;;;2.15;1.15;;;;;;;5.61;78.92;98298.06;4188569;28;20204;-90
2022/02/06 06:07:18;;;;;;;5.00;1.80;;;;;;;5.62;78.27;98291.97;4191298;28;20210;-91
2022/02/06 06:09:24;;;;;;;3.55;1.42;;;;;;;5.62;78.59;98286.81;4187619;28;20302;-91
2022/02/06 06:11:28;;;;;;;3.03;1.70;;;;;;;5.55;78.48;98279.41;4188587;28;20203;-89
2022/02/06 06:13:31;;;;;;;4.75;1.25;;;;;;;5.59;79.62;98274.91;4194335;28;20266;-91
2022/02/06 06:15:34;;;;;;;3.25;1.00;;;;;;;5.64;79.40;98271.22;4189714;28;20207;-90
2022/02/06 06:17:38;;;;;;;6.07;1.60;;;;;;;5.64;78.99;98268.63;4172860;28;20207;-91
2022/02/06 06:19:44;;;;;;;5.10;1.40;;;;;;;5.62;78.96;98276.47;4190644;28;20234;-91
2022/02/06 06:21:53;;;;;;;3.55;1.60;;;;;;;5.57;79.31;98271.56;4188879;28;20227;-91
2022/02/06 06:23:56;;;;;;;6.03;1.50;;;;;;;5.60;79.46;98267.09;4199671;28;20610;-91
2022/02/06 06:25:59;;;;;;;3.00;1.60;;;;;;;5.58;79.48;98276.69;4188647;28;20203;-90
2022/02/06 06:28:04;;;;;;;6.93;1.65;;;;;;;5.57;78.94;98277.56;4220065;28;20285;-91
2022/02/06 06:30:08;;;;;;;5.00;1.52;;;;;;;5.61;79.66;98285.13;4173432;28;20614;-91
2022/02/06 06:32:11;;;;;;;5.68;1.90;;;;;;;5.57;79.27;98280.16;4172385;28;20202;-89
2022/02/06 06:34:15;;;;;;;5.40;1.30;;;;;;;5.53;79.32;98278.59;4189955;28;20303;-91
2022/02/06 06:36:21;;;;;;;4.95;1.58;;;;;;;5.58;79.30;98278.41;4163149;28;20212;-90
2022/02/06 06:38:25;;;;;;;7.20;1.27;;;;;;;5.57;80.03;98277.56;4176988;28;20675;-91
2022/02/06 06:40:29;;;;;;;2.03;1.20;;;;;;;5.55;80.19;98248.38;4189523;28;20217;-90
2022/02/06 06:42:32;;;;;;;3.55;1.60;;;;;;;5.54;79.60;98228.56;4158280;28;20263;-91
2022/02/06 06:44:37;;;;;;;6.30;1.60;;;;;;;5.55;80.41;98237.16;4175469;28;20682;-90
2022/02/06 06:46:40;;;;;;;2.78;1.30;;;;;;;5.59;80.00;98231.78;4192688;28;20265;-91
2022/02/06 06:48:43;;;;;;;5.50;1.30;;;;;;;5.59;79.96;98236.13;4159937;28;20209;-90
2022/02/06 06:50:46;;;;;;;4.75;1.70;;;;;;;5.55;79.96;98235.44;4156562;28;20213;-91
2022/02/06 06:52:52;;;;;;;4.47;1.40;;;;;;;5.57;80.98;98230.19;4191296;28;20204;-90
2022/02/06 06:55:01;;;;;;;5.22;1.35;;;;;;;5.56;79.87;98229.34;4191860;28;20191;-91
2022/02/06 06:57:13;;;;;;;3.60;1.30;;;;;;;5.57;80.89;98236.19;4177556;28;20310;-91
2022/02/06 06:59:29;;;;;;;5.53;1.75;;;;;;;5.57;80.25;98236.19;4157856;28;20212;-91
2022/02/06 07:01:45;;;;;;;4.88;1.50;;;;;;;5.58;80.05;98232.72;4206720;28;20195;-91
2022/02/06 07:03:48;;;;;;;5.05;1.30;;;;;;;5.59;79.78;98236.94;4158521;28;20240;-91
2022/02/06 07:05:51;;;;;;;6.30;1.58;;;;;;;5.61;80.45;98235.16;4160164;28;20894;-89
2022/02/06 07:07:56;;;;;;;2.65;1.27;;;;;;;5.61;81.01;98228.22;4176663;28;20202;-91
2022/02/06 07:10:00;;;;;;;2.90;1.17;;;;;;;5.66;80.31;98226.25;4159692;28;20203;-91
2022/02/06 07:12:04;;;;;;;5.05;1.63;;;;;;;5.68;80.44;98223.59;4192560;28;20295;-91
2022/02/06 07:14:07;;;;;;;3.00;1.38;;;;;;;5.71;80.14;98224.31;4173916;28;20269;-91
2022/02/06 07:16:10;;;;;;;3.63;1.42;;;;;;;5.72;79.99;98230.31;4156582;28;20200;-91
2022/02/06 07:18:15;;;;;;;3.63;1.58;;;;;;;5.72;79.98;98225.13;4172643;28;20234;-91
2022/02/06 07:20:21;;;;;;;4.65;1.33;;;;;;;5.76;80.11;98218.94;4169977;28;20198;-91
2022/02/06 07:22:24;;;;;;;7.57;1.83;;;;;;;5.76;80.13;98211.19;4152972;28;20661;-90
2022/02/06 07:24:31;;;;;;;3.95;1.45;;;;;;;5.82;80.00;98208.31;4160470;28;20195;-91
2022/02/06 07:26:34;;;;;;;7.65;1.67;;;;;;;5.82;80.02;98206.56;4189368;28;20216;-90
2022/02/06 07:28:41;;;;;;;5.15;1.52;;;;;;;5.86;79.86;98196.88;4159320;28;20203;-89
2022/02/06 07:30:47;;;;;;;3.65;1.40;;;;;;;5.88;80.04;98187.28;4190479;28;20730;-90
2022/02/06 07:32:50;;;;;;;5.72;1.20;;;;;;;5.89;79.96;98187.22;4158293;28;20294;-91
2022/02/06 07:34:54;;;;;;;2.42;1.17;;;;;;;5.87;79.50;98186.47;4189660;28;20199;-90
2022/02/06 07:37:00;;;;;;;3.95;1.77;;;;;;;5.87;79.66;98186.47;4162589;28;20294;-90
2022/02/06 07:39:03;;;;;;;4.63;1.35;;;;;;;5.88;80.02;98179.53;4173027;28;20866;-88
2022/02/06 07:41:06;;;;;;;3.95;1.10;;;;;;;5.88;79.49;98177.78;4159368;28;20701;-90
2022/02/06 07:43:12;;;;;;;3.05;1.60;;;;;;;5.90;79.74;98172.53;4162362;28;20260;-90
2022/02/06 07:45:20;;;;;;;2.78;1.88;;;;;;;5.90;79.69;98170.78;4175857;28;20222;-90
2022/02/06 07:47:26;;;;;;;4.63;1.73;;;;;;;5.91;80.23;98159.53;4176868;28;20208;-91
2022/02/06 07:49:29;;;;;;;5.15;1.35;;;;;;;5.90;79.60;98168.19;4175272;28;20263;-91
2022/02/06 07:51:35;;;;;;;4.32;1.20;;;;;;;5.92;80.11;98161.19;4156121;28;20216;-90
2022/02/06 07:53:38;;;;;;;4.25;1.80;;;;;;;5.94;80.21;98149.03;4155358;28;20215;-91
2022/02/06 07:55:41;;;;;;;4.93;1.40;;;;;;;5.96;80.21;98144.59;4172430;28;20219;-91
2022/02/06 07:57:44;;;;;;;4.95;1.35;;;;;;;5.99;79.60;98141.03;4205546;28;20667;-91
2022/02/06 07:59:51;;;;;;;6.15;1.73;;;;;;;6.01;79.81;98149.56;4171706;28;20209;-90
2022/02/06 08:01:54;;;;;;;4.35;1.10;;;;;;;6.03;79.60;98147.72;4174660;28;20211;-90
2022/02/06 08:03:57;;;;;;;3.13;1.40;;;;;;;6.01;79.53;98132.28;4160404;28;20666;-90
2022/02/06 08:06:01;;;;;;;5.93;1.92;;;;;;;6.03;79.94;98127.88;4176596;28;20200;-90
2022/02/06 08:08:12;;;;;;;4.15;1.38;;;;;;;6.08;80.31;98118.94;4179726;28;20199;-91
2022/02/06 08:10:15;;;;;;;7.72;1.60;;;;;;;6.06;79.80;98117.38;4191090;28;20210;-90
2022/02/06 08:12:26;;;;;;;3.60;1.60;;;;;;;6.10;79.88;98127.50;4191152;28;20211;-88
2022/02/06 08:16:49;;;;;;;4.95;1.50;;;;;;;6.17;80.12;98120.25;4174994;28;20204;-91
2022/02/06 08:18:58;;;;;;;10.48;1.70;;;;;;;6.17;80.11;98118.47;4186189;28;20228;-91
2022/02/06 08:21:01;;;;;;;4.00;1.38;;;;;;;6.16;80.26;98108.19;4169974;28;20213;-91
2022/02/06 08:23:20;;;;;;;5.32;1.65;;;;;;;6.19;80.06;98108.91;4160355;28;20229;-91
2022/02/06 08:25:24;;;;;;;4.05;1.38;;;;;;;6.18;80.28;98106.41;4187181;28;20577;-90
2022/02/06 08:27:28;;;;;;;3.80;1.52;;;;;;;6.24;80.17;98104.31;4180336;28;20213;-90
2022/02/06 08:29:32;;;;;;;3.30;1.20;;;;;;;6.23;80.03;98104.41;4173982;28;20204;-89
2022/02/06 08:31:35;;;;;;;4.47;1.17;;;;;;;6.24;80.10;98093.09;4174968;28;20201;-90
2022/02/06 08:33:38;;;;;;;6.80;1.50;;;;;;;6.23;80.31;98099.22;4173588;28;20206;-91
2022/02/06 08:35:41;;;;;;;6.03;1.60;;;;;;;6.25;80.51;98105.97;4175034;28;20208;-93
2022/02/06 08:37:44;;;;;;;6.15;1.80;;;;;;;6.29;79.56;98104.09;4157827;28;20254;-90
2022/02/06 08:39:51;;;;;;;2.85;1.10;;;;;;;6.32;79.43;98094.41;4188844;28;20216;-88
2022/02/06 08:41:54;;;;;;;4.85;1.33;;;;;;;6.37;80.14;98100.16;4156303;28;20242;-86
2022/02/06 08:43:57;;;;;;;9.07;3.05;;;;;;;6.36;79.96;98095.94;4186137;28;20219;-87
2022/02/06 08:46:03;;;;;;;6.38;2.17;;;;;;;6.36;80.22;98095.06;4157066;28;20215;-88
2022/02/06 08:48:06;;;;;;;2.47;1.20;;;;;;;6.36;79.71;98095.06;4173929;28;20213;-88
2022/02/06 08:50:13;;;;;;;4.88;1.20;;;;;;;6.36;80.01;98095.94;4170843;28;20680;-87
2022/02/06 08:52:18;;;;;;;4.65;1.70;;;;;;;6.38;79.72;98075.13;4154393;28;20241;-88
2022/02/06 08:54:25;;;;;;;4.07;1.58;;;;;;;6.41;79.63;98075.81;4154692;28;20201;-88
2022/02/06 08:56:46;;;;;;;4.25;1.65;;;;;;;6.41;78.91;98075.81;4154530;28;20209;-87
2022/02/06 08:58:51;;;;;;;2.85;1.52;;;;;;;6.46;79.10;98076.38;4156967;28;20232;-87
2022/02/06 09:00:54;;;;;;;3.50;1.42;;;;;;;6.48;78.53;98079.75;4167248;28;20245;-88
2022/02/06 09:02:57;;;;;;;2.92;1.25;;;;;;;6.56;79.12;98082.78;4165498;28;20212;-86
2022/02/06 09:05:02;;;;;;;3.58;1.60;;;;;;;6.59;78.63;98077.44;4170094;28;20215;-88
2022/02/06 09:07:05;;;;;;;1.83;1.08;;;;;;;6.63;79.98;98084.09;4168319;28;20247;-87
2022/02/06 09:09:13;;;;;;;3.80;2.17;;;;;;;6.61;79.46;98083.34;4182469;28;20201;-89
2022/02/06 09:11:19;;;;;;;3.80;2.13;;;;;;;6.67;79.06;98070.06;4170689;28;20217;-87
2022/02/06 09:13:24;;;;;;;6.35;2.30;;;;;;;6.74;79.69;98068.84;4185402;28;20723;-88
2022/02/06 09:15:27;;;;;;;9.15;1.80;;;;;;;6.74;79.53;98068.84;4203076;28;20306;-88
2022/02/06 09:17:30;;;;;;;7.60;1.60;;;;;;;6.80;80.17;98056.38;4166460;28;20209;-86
2022/02/06 09:19:36;;;;;;;2.13;1.30;;;;;;;6.81;80.15;98063.25;4158349;28;20276;-86
2022/02/06 09:21:39;;;;;;;6.78;1.90;;;;;;;6.88;80.27;98054.19;4172292;28;20220;-86
2022/02/06 09:23:42;;;;;;;3.03;1.35;;;;;;;6.85;78.16;98033.63;4174508;28;20213;-84
2022/02/06 09:25:46;;;;;;;4.07;1.50;;;;;;;6.82;79.50;98044.16;4174804;28;20229;-86
2022/02/06 09:27:49;;;;;;;3.53;1.52;;;;;;;6.87;79.40;98036.16;4155824;28;20299;-85
2022/02/06 09:29:53;;;;;;;7.45;1.10;;;;;;;6.92;78.82;98041.94;4155830;28;20732;-86
2022/02/06 09:31:57;;;;;;;4.25;1.20;;;;;;;6.97;78.04;98032.97;4186861;28;20765;-85
2022/02/06 09:36:02;;;;;;;5.25;1.80;;;;;;;6.96;78.56;98027.88;4172650;28;20724;-86
2022/02/06 09:38:05;;;;;;;3.67;1.55;;;;;;;7.03;78.06;98026.63;4169433;28;20200;-86
2022/02/06 09:40:12;;;;;;;3.28;1.20;;;;;;;7.08;78.08;98031.47;4157764;28;20214;-86
2022/02/06 09:42:19;;;;;;;3.22;1.33;;;;;;;7.10;78.65;98023.59;4172931;28;20235;-86
2022/02/06 09:44:24;;;;;;;2.38;1.30;;;;;;;7.16;77.71;98007.72;4172367;28;20229;-86
2022/02/06 09:46:30;;;;;;;6.78;1.38;;;;;;;7.15;78.66;97993.88;4170071;28;20259;-85
2022/02/06 09:48:34;;;;;;;2.42;1.10;;;;;;;7.17;77.83;98005.03;4173523;28;20245;-88
2022/02/06 09:50:37;;;;;;;2.78;1.10;;;;;;;7.13;78.06;97993.16;4171669;28;20764;-88
2022/02/06 09:52:41;;;;;;;1.92;1.00;;;;;;;7.12;78.62;97996.66;4165943;28;20213;-84
2022/02/06 09:54:48;;;;;;;4.15;1.40;;;;;;;7.13;78.03;98008.69;4186203;28;20228;-86
2022/02/06 09:56:54;;;;;;;3.33;1.35;;;;;;;7.11;78.12;97989.81;4186934;28;20247;-86
2022/02/06 09:59:01;;;;;;;5.57;1.45;;;;;;;7.06;79.20;97988.38;4187902;28;20247;-84
2022/02/06 10:01:04;;;;;;;3.45;1.33;;;;;;;7.06;80.43;97986.63;4169362;28;20198;-85
2022/02/06 10:03:14;;;;;;;3.13;1.20;;;;;;;7.05;79.76;97972.00;4164654;28;20244;-84
2022/02/06 10:05:18;;;;;;;1.98;1.10;;;;;;;7.10;79.81;97966.56;4162298;28;20236;-85
2022/02/06 10:07:29;;;;;;;2.78;1.13;;;;;;;7.09;79.56;97955.34;4168479;28;20220;-86
2022/02/06 10:09:36;;;;;;;2.38;1.13;;;;;;;7.17;79.10;97955.75;4170818;28;20200;-83
2022/02/06 10:11:45;;;;;;;5.38;2.05;;;;;;;7.16;79.43;97951.47;4171577;28;20212;-83
2022/02/06 10:13:48;;;;;;;5.22;1.70;;;;;;;7.17;79.66;97958.34;4167943;28;21338;-83
2022/02/06 10:15:56;;;;;;;6.45;1.73;;;;;;;7.16;78.59;97940.28;4174972;28;20258;-84
2022/02/06 10:18:00;;;;;;;2.42;1.58;;;;;;;7.23;78.47;97939.84;4184346;28;20197;-83
2022/02/06 10:20:13;;;;;;;3.20;1.20;;;;;;;7.22;78.39;97950.31;4177570;28;20206;-84
2022/02/06 10:22:26;;;;;;;4.18;1.48;;;;;;;7.25;77.90;97942.34;4200814;28;20876;-84
2022/02/06 10:24:32;;;;;;;2.95;1.05;;;;;;;7.26;78.02;97931.03;4174783;28;20626;-84
2022/02/06 10:26:39;;;;;;;3.60;1.08;;;;;;;7.29;78.30;97928.28;4155103;28;20215;-83
2022/02/06 10:28:45;;;;;;;2.90;1.20;;;;;;;7.29;78.48;97918.75;4192701;28;20210;-84
2022/02/06 10:30:51;;;;;;;5.70;1.33;;;;;;;7.34;78.80;97914.13;4169558;28;21084;-84
2022/02/06 10:32:54;;;;;;;3.13;1.10;;;;;;;7.33;77.78;97909.84;4159172;28;20203;-83
2022/02/06 10:35:12;;;;;;;3.00;1.55;;;;;;;7.33;79.52;97912.44;4202740;28;20210;-83
2022/02/06 10:37:17;;;;;;;2.80;1.15;;;;;;;7.36;78.34;97901.88;4173285;28;20882;-85
2022/02/06 10:39:24;;;;;;;3.97;1.30;;;;;;;7.41;78.34;97907.63;4154361;28;20201;-85
2022/02/06 10:41:27;;;;;;;2.75;1.10;;;;;;;7.44;78.44;97904.84;4178389;28;20213;-86
2022/02/06 10:43:30;;;;;;;5.05;1.35;;;;;;;7.46;77.64;97890.06;4189514;28;20204;-86
2022/02/06 10:45:39;;;;;;;3.47;1.40;;;;;;;7.52;78.90;97903.50;4188954;28;20233;-85
2022/02/06 10:47:43;;;;;;;4.40;1.27;;;;;;;7.50;79.23;97899.31;4174056;28;20261;-84
2022/02/06 10:50:03;;;;;;;5.82;1.60;;;;;;;7.52;78.31;97898.31;4188718;28;20217;-83
2022/02/06 10:52:09;;;;;;;4.82;1.35;;;;;;;7.58;78.59;97894.53;4158260;28;20206;-85
2022/02/06 10:54:14;;;;;;;2.90;1.33;;;;;;;7.57;78.74;97869.50;4173458;28;20640;-85
2022/02/06 10:56:17;;;;;;;4.75;1.27;;;;;;;7.60;78.12;97864.13;4180489;28;20242;-84
2022/02/06 10:58:25;;;;;;;2.28;1.45;;;;;;;7.64;77.99;97863.00;4159787;28;20249;-85
2022/02/06 11:00:29;;;;;;;5.13;1.30;;;;;;;7.62;78.34;97854.47;4177405;28;20235;-85
2022/02/06 11:02:34;;;;;;;5.82;1.40;;;;;;;7.63;76.83;97846.59;4186836;28;20198;-85
2022/02/06 11:04:44;;;;;;;7.07;1.35;;;;;;;7.61;77.07;97837.25;4177813;28;20808;-84
2022/02/06 11:06:53;;;;;;;5.57;1.55;;;;;;;7.65;78.05;97843.91;4174663;28;20190;-85
2022/02/06 11:08:58;;;;;;;3.17;1.20;;;;;;;7.64;77.74;97821.50;4178100;28;20645;-84
2022/02/06 11:11:03;;;;;;;4.65;1.27;;;;;;;7.64;77.20;97824.91;4186501;28;20578;-85
2022/02/06 11:13:09;;;;;;;4.05;1.15;;;;;;;7.68;78.78;97825.56;4185690;28;20235;-85
2022/02/06 11:15:30;;;;;;;3.42;0.95;;;;;;;7.62;78.33;97805.16;4154192;28;20240;-84
2022/02/06 11:17:36;;;;;;;3.58;0.80;;;;;;;7.62;77.89;97806.03;4188385;28;20212;-84
2022/02/06 11:19:57;;;;;;;4.63;1.20;;;;;;;7.60;77.46;97801.84;4184787;28;20203;-84
2022/02/06 11:22:12;;;;;;;3.70;1.73;;;;;;;7.62;77.46;97794.78;4189778;28;20219;-85
2022/02/06 11:24:22;;;;;;;1.45;0.75;;;;;;;7.66;78.31;97791.09;4167635;28;20211;-85
2022/02/06 11:26:27;;;;;;;2.65;1.10;;;;;;;7.64;77.77;97793.78;4170478;28;20784;-86
2022/02/06 11:28:31;;;;;;;3.05;1.23;;;;;;;7.66;78.61;97775.53;4183478;28;20198;-85